ED1ZAE-3
43.27.99N 005.40.54W
IN73DL aprs.fi
zuletzt gehoert:
2022-07-05T14:45:12Z
zuerst gehoert:
2020-02-10T14:57:29Z

APRS Gijón/Xixón [IN73DL], 2 Stunde(n), ED1ZAE-3 [16:51:26, 0s].
ED1ZAS 43.27.52N 005.40.17WIN73DL 0.227km 121°ESE14:32:25ZRD985 438.2250/430.6250 CC1
ED1ZAE 43.27.99N 005.40.54WIN73DL 0.794km 338°NNW14:45:12Z400 M. PICO SAN MARTIN (GIJON) 13.3V,21.4C(3ED1ZAE-3)
EA4ACU 43.29.56N 005.38.92WIN73EL 4.113km 27°NNE14:32:02ZMMDVM MMDVM HS Hat 432.7000/432.7000 CC1(3EA4ACU-1)
EA1DZR 43.31.48N 005.40.00WIN73EM 7.214km N14:32:10ZMMDVM DVMega 431.1000/431.1000 CC1(3EA1DZR-1)
MMDVM MMDVM HS Hat 432.1000/432.1000 CC2(2EA1DZR-2)
MMDVM DV ADER 434.3500/434.3500 CC1(2EA1DZR-4)
EB1GEM 43.30.00N 005.36.07WIN73EM 7.263km 52°NE14:38:53ZWX3in1Plus2.0 U=13.3V,T=??.?C/??.?F(3EB1GEM-3)
EA1IEJ 43.31.83N 005.40.22WIN73DM 7.850km N14:32:03ZMMDVM DMO 222.3400/222.3400 CC1(3EA1IEJ-11)
EA1IPU 43.26.21N 005.46.62WIN73CK 8.844km 253°WSW14:30:52ZMMDVM MMDVM HS Hat 439.8000/439.8000 CC1(3EA1IPU-1)
EB1TK 43.32.22N 005.42.32WIN73DM 9.000km 343°NNW14:50:20ZWind 048°/016kn, Böen bis 021kn, Temp 19.44c, Regen 0.0mm, letzte 24h 1.0mm, seit 0h 1.0mm, Baro 1027.4h, Hum: 88%(3EB1TK-13)
LEEL 43.32.98N 005.41.71WIN73DN 10.155km 349°N14:30:04ZHelipuerto de El Musel: LEAS 051330Z 05006KT 350V100 9999 FEW018 SCT023 BKN030 20/17 Q1025 NOSIG=
LEMR 43.25.83N 005.49.60WIN73CK 12.913km 255°WSW14:30:04ZAerodromo de la Morgal (123.500MHz): LEAS 051330Z 05006KT 350V100 9999 FEW018 SCT023 BKN030 20/17 Q1025 NOSIG=
LEGM 43.26.15N 005.49.84WIN73CK 13.074km 258°WSW14:30:04ZHelipuerto de La Morgal (123.500MHz): LEAS 051330Z 05006KT 350V100 9999 FEW018 SCT023 BKN030 20/17 Q1025 NOSIG=
LEHU 43.22.63N 005.49.57WIN73CJ 15.485km 234°SW14:30:03ZHelipuerto del HUCA: LEAS 051330Z 05006KT 350V100 9999 FEW018 SCT023 BKN030 20/17 Q1025 NOSIG=
EA1JW 43.31.35N 005.28.83WIN73GM 16.946km 66°ENE14:31:51ZMMDVM MMDVM HS Hat 436.5000/436.5000 CC1(3EA1JW-3)
33D00 43.21.63N 005.51.13WIN73BI 18.268km 233°SW14:01:43Z33-D-00 Protección Civil REMER / Delegación del Gobierno en Asturias
EA1JAY 43.21.54N 005.51.34WIN73BI 18.605km 233°SW14:30:05ZEA1JAY(3EA1JAY-2)
434.525MHz Nodo TETRA DMO(2EA1JAY-4)
ED1ZAU 43.23.04N 005.52.75WIN73BJ 18.744km 243°WSW14:32:30ZRD625 438.5000/430.9000 CC1
EA1HJA 43.21.47N 005.52.09WIN73BI 19.484km 235°SW14:42:43ZEA1HJA@URE.ES(3EA1HJA-2)
IN73FL WX3IN1+ 2.0 - V=14.0V,TX TEMP=46.0C(2EA1HJA)
EA1L 43.20.37N 005.51.13WIN73BI 19.757km 227°SW14:50:05Zea1l@ure.es V=13.4V
Wind 046°/004kn, Böen bis 009kn, Temp 19.44c, Regen 0.0mm, letzte 24h 0.0mm, seit 0h 0.0mm, Baro 1022.6h, Hum: 85%(2EA1L-13)
EA1HWX 43.19.28N 005.50.98WIN73BH 21.053km 223°SW14:32:12ZDMO - UHF 439.7250/431.0000 CC11(3EA1HWX-2)
MMDVM DMO 222.3400/222.3400 CC1(2EA1HWX-10)
EA1AHA 43.32.72N 005.54.38WIN73BN 21.153km 297°WNW14:32:03ZMMDVM MMDVM HS 433.5000/433.5000 CC1
Wind 067°/011kn, Böen bis 017kn, Temp 21.67c, Regen 0.0mm, letzte 24h 2.0mm, seit 0h 2.0mm, Baro 1026.2h, Hum: 68%(2EA1AHA-13)
ED1ZAY 43.29.47N 005.56.54WIN73AL 22.096km 279°W14:32:28ZRD625 438.3000/430.7000 CC1
EA1BCU 43.32.88N 005.55.46WIN73AN 22.589km 296°WNW14:15:24ZAnt-QFH 144.800 MHz, Arduino-APRS/TLM(3EA1BCU-4)
EB1DGC 43.12.60N 005.45.59WIN73CF 28.679km 194°SSW14:31:00ZMMDVM MMDVM HS Hat 433.4500/433.4500 CC1
EA1HWA 43.12.00N 005.47.40WIN73CE 30.428km 198°SSW14:31:24ZMMDVM MMDVM HS Hat 433.4500/433.4500 CC1
EA1JBU 43.30.80N 005.16.20WIN73IM 32.958km 79°E14:45:04ZEA1JBU(3EA1JBU-2)
EA1JBE 43.30.90N 005.16.15WIN73IM 33.071km 79°E14:45:03ZEA1JBU(3EA1JBE-13)
MAIN QTH http://qrz.com/db/ea1jbe(2EA1JBE-1)
EA1RCG 43.09.45N 005.49.78WIN73CD 35.944km 201°SSW14:30:46ZGRUPO RADIO GALENA (GRG) 430.4500/430.4500 CC1(3EA1RCG-3)
ED1ZAD 43.07.90N 005.38.52WIN73ED 36.554km 176°S14:47:55ZED1ZAD-3 APRS Digi/Igate(3ED1ZAD-3)
ED1ZBF 43.19.16N 005.06.74WIN73KH 47.828km 109°ESE14:32:26ZRD625 438.4750/430.8750 CC1
EC1KV 43.34.01N 006.16.01WIN63UN 49.406km 284°WNW14:27:38Z VOLT.=14.1 V - TEMP.=??.? C(3EC1KV-1)

aprs.pl 5.0.011w DL3EL © 2006-2021 [3615738]